sensor_id;sensor_type;location;lat;lon;timestamp;P1;durP1;ratioP1;P2;durP2;ratioP2
68375;SDS011;55318;52.068;5.188;2023-09-07T00:02:42;2.9;;;2.4;;
68375;SDS011;55318;52.068;5.188;2023-09-07T00:04:19;3.2;;;2.4;;
68375;SDS011;55318;52.068;5.188;2023-09-07T00:05:55;4.61;;;2.6;;
68375;SDS011;55318;52.068;5.188;2023-09-07T00:07:31;3.9;;;2.9;;
68375;SDS011;55318;52.068;5.188;2023-09-07T00:10:43;3.7;;;2.8;;
68375;SDS011;55318;52.068;5.188;2023-09-07T00:12:19;3.9;;;3.0;;
68375;SDS011;55318;52.068;5.188;2023-09-07T00:13:55;4.61;;;3.1;;
68375;SDS011;55318;52.068;5.188;2023-09-07T00:17:12;4.5;;;3.1;;
68375;SDS011;55318;52.068;5.188;2023-09-07T00:18:48;5.4;;;3.3;;
68375;SDS011;55318;52.068;5.188;2023-09-07T00:20:26;3.1;;;2.31;;
68375;SDS011;55318;52.068;5.188;2023-09-07T00:22:02;4.91;;;3.0;;
68375;SDS011;55318;52.068;5.188;2023-09-07T00:25:16;3.7;;;3.0;;
68375;SDS011;55318;52.068;5.188;2023-09-07T00:26:52;3.4;;;2.9;;
68375;SDS011;55318;52.068;5.188;2023-09-07T00:28:28;3.9;;;3.0;;
68375;SDS011;55318;52.068;5.188;2023-09-07T00:31:41;4.3;;;2.8;;
68375;SDS011;55318;52.068;5.188;2023-09-07T00:33:17;3.5;;;2.8;;
68375;SDS011;55318;52.068;5.188;2023-09-07T00:34:54;3.5;;;2.7;;
68375;SDS011;55318;52.068;5.188;2023-09-07T00:38:07;3.3;;;2.7;;
68375;SDS011;55318;52.068;5.188;2023-09-07T00:39:43;3.9;;;2.8;;
68375;SDS011;55318;52.068;5.188;2023-09-07T00:41:19;6.2;;;3.0;;
68375;SDS011;55318;52.068;5.188;2023-09-07T00:42:55;3.8;;;2.7;;
68375;SDS011;55318;52.068;5.188;2023-09-07T00:46:07;4.91;;;2.7;;
68375;SDS011;55318;52.068;5.188;2023-09-07T00:47:43;4.0;;;3.2;;
68375;SDS011;55318;52.068;5.188;2023-09-07T00:49:20;3.9;;;2.9;;
68375;SDS011;55318;52.068;5.188;2023-09-07T00:52:35;5.3;;;3.7;;
68375;SDS011;55318;52.068;5.188;2023-09-07T00:54:13;3.0;;;2.4;;
68375;SDS011;55318;52.068;5.188;2023-09-07T00:55:49;4.3;;;2.8;;
68375;SDS011;55318;52.068;5.188;2023-09-07T00:59:01;5.2;;;3.1;;
68375;SDS011;55318;52.068;5.188;2023-09-07T01:00:38;3.8;;;2.9;;
68375;SDS011;55318;52.068;5.188;2023-09-07T01:02:15;4.0;;;3.0;;
68375;SDS011;55318;52.068;5.188;2023-09-07T01:03:52;4.2;;;3.1;;
68375;SDS011;55318;52.068;5.188;2023-09-07T01:07:17;4.1;;;2.9;;
68375;SDS011;55318;52.068;5.188;2023-09-07T01:08:59;3.8;;;2.7;;
68375;SDS011;55318;52.068;5.188;2023-09-07T01:10:47;3.1;;;2.7;;
68375;SDS011;55318;52.068;5.188;2023-09-07T01:12:23;3.8;;;2.8;;
68375;SDS011;55318;52.068;5.188;2023-09-07T01:15:35;3.8;;;3.1;;
68375;SDS011;55318;52.068;5.188;2023-09-07T01:17:13;5.11;;;2.6;;
68375;SDS011;55318;52.068;5.188;2023-09-07T01:18:50;6.3;;;3.4;;
68375;SDS011;55318;52.068;5.188;2023-09-07T01:22:06;5.5;;;3.3;;
68375;SDS011;55318;52.068;5.188;2023-09-07T01:23:44;4.1;;;2.6;;
68375;SDS011;55318;52.068;5.188;2023-09-07T01:26:59;5.9;;;3.2;;
68375;SDS011;55318;52.068;5.188;2023-09-07T01:30:13;3.9;;;3.0;;
68375;SDS011;55318;52.068;5.188;2023-09-07T01:31:49;3.6;;;3.0;;
68375;SDS011;55318;52.068;5.188;2023-09-07T01:33:25;4.41;;;3.1;;
68375;SDS011;55318;52.068;5.188;2023-09-07T01:36:42;5.7;;;2.9;;
68375;SDS011;55318;52.068;5.188;2023-09-07T01:38:19;4.2;;;3.3;;
68375;SDS011;55318;52.068;5.188;2023-09-07T01:39:55;4.2;;;2.7;;
68375;SDS011;55318;52.068;5.188;2023-09-07T01:41:31;3.8;;;2.7;;
68375;SDS011;55318;52.068;5.188;2023-09-07T01:44:43;4.7;;;2.7;;
68375;SDS011;55318;52.068;5.188;2023-09-07T01:46:19;4.3;;;3.0;;
68375;SDS011;55318;52.068;5.188;2023-09-07T01:47:55;3.9;;;2.9;;
68375;SDS011;55318;52.068;5.188;2023-09-07T01:51:07;4.0;;;3.1;;
68375;SDS011;55318;52.068;5.188;2023-09-07T01:52:45;4.3;;;3.1;;
68375;SDS011;55318;52.068;5.188;2023-09-07T01:54:23;3.6;;;2.7;;
68375;SDS011;55318;52.068;5.188;2023-09-07T01:57:35;4.0;;;2.9;;
68375;SDS011;55318;52.068;5.188;2023-09-07T01:59:11;4.3;;;2.7;;
68375;SDS011;55318;52.068;5.188;2023-09-07T02:00:47;3.6;;;2.9;;
68375;SDS011;55318;52.068;5.188;2023-09-07T02:02:23;4.1;;;2.9;;
68375;SDS011;55318;52.068;5.188;2023-09-07T02:05:35;5.11;;;3.2;;
68375;SDS011;55318;52.068;5.188;2023-09-07T02:07:12;5.11;;;3.2;;
68375;SDS011;55318;52.068;5.188;2023-09-07T02:08:49;4.7;;;2.7;;
68375;SDS011;55318;52.068;5.188;2023-09-07T02:12:01;4.0;;;2.8;;
68375;SDS011;55318;52.068;5.188;2023-09-07T02:13:37;3.1;;;2.4;;
68375;SDS011;55318;52.068;5.188;2023-09-07T02:15:16;4.8;;;3.1;;
68375;SDS011;55318;52.068;5.188;2023-09-07T02:18:28;5.0;;;3.2;;
68375;SDS011;55318;52.068;5.188;2023-09-07T02:20:05;4.0;;;3.2;;
68375;SDS011;55318;52.068;5.188;2023-09-07T02:21:42;3.7;;;3.0;;
68375;SDS011;55318;52.068;5.188;2023-09-07T02:23:18;3.7;;;2.6;;
68375;SDS011;55318;52.068;5.188;2023-09-07T02:26:30;5.4;;;3.3;;
68375;SDS011;55318;52.068;5.188;2023-09-07T02:28:06;4.3;;;3.0;;
68375;SDS011;55318;52.068;5.188;2023-09-07T02:29:42;4.8;;;3.0;;
68375;SDS011;55318;52.068;5.188;2023-09-07T02:32:54;3.2;;;2.7;;
68375;SDS011;55318;52.068;5.188;2023-09-07T02:34:31;3.7;;;2.8;;
68375;SDS011;55318;52.068;5.188;2023-09-07T02:36:07;4.91;;;3.1;;
68375;SDS011;55318;52.068;5.188;2023-09-07T02:39:21;3.0;;;2.5;;
68375;SDS011;55318;52.068;5.188;2023-09-07T02:40:57;3.0;;;2.7;;
68375;SDS011;55318;52.068;5.188;2023-09-07T02:42:33;3.2;;;2.7;;
68375;SDS011;55318;52.068;5.188;2023-09-07T02:45:46;3.1;;;2.6;;
68375;SDS011;55318;52.068;5.188;2023-09-07T02:47:24;4.1;;;2.7;;
68375;SDS011;55318;52.068;5.188;2023-09-07T02:49:00;4.61;;;2.9;;
68375;SDS011;55318;52.068;5.188;2023-09-07T02:50:36;4.41;;;2.7;;
68375;SDS011;55318;52.068;5.188;2023-09-07T02:53:48;4.61;;;3.0;;
68375;SDS011;55318;52.068;5.188;2023-09-07T02:55:24;3.8;;;3.0;;
68375;SDS011;55318;52.068;5.188;2023-09-07T02:57:00;3.8;;;3.4;;
68375;SDS011;55318;52.068;5.188;2023-09-07T03:00:13;4.5;;;3.1;;
68375;SDS011;55318;52.068;5.188;2023-09-07T03:01:50;4.3;;;3.2;;
68375;SDS011;55318;52.068;5.188;2023-09-07T03:03:26;3.6;;;3.0;;
68375;SDS011;55318;52.068;5.188;2023-09-07T03:06:39;5.0;;;3.1;;
68375;SDS011;55318;52.068;5.188;2023-09-07T03:08:15;4.8;;;3.6;;
68375;SDS011;55318;52.068;5.188;2023-09-07T03:09:51;3.3;;;3.0;;
68375;SDS011;55318;52.068;5.188;2023-09-07T03:11:27;4.5;;;3.2;;
68375;SDS011;55318;52.068;5.188;2023-09-07T03:14:42;4.3;;;3.4;;
68375;SDS011;55318;52.068;5.188;2023-09-07T03:16:19;3.5;;;2.7;;
68375;SDS011;55318;52.068;5.188;2023-09-07T03:17:55;3.9;;;3.4;;
68375;SDS011;55318;52.068;5.188;2023-09-07T03:21:07;5.0;;;3.7;;
68375;SDS011;55318;52.068;5.188;2023-09-07T03:22:44;4.7;;;3.4;;
68375;SDS011;55318;52.068;5.188;2023-09-07T03:24:21;5.6;;;3.5;;
68375;SDS011;55318;52.068;5.188;2023-09-07T03:27:33;4.91;;;3.3;;
68375;SDS011;55318;52.068;5.188;2023-09-07T03:29:09;5.2;;;3.5;;
68375;SDS011;55318;52.068;5.188;2023-09-07T03:30:44;4.1;;;3.2;;
68375;SDS011;55318;52.068;5.188;2023-09-07T03:33:56;4.91;;;3.7;;
68375;SDS011;55318;52.068;5.188;2023-09-07T03:35:33;6.5;;;4.3;;
68375;SDS011;55318;52.068;5.188;2023-09-07T03:37:09;4.7;;;3.9;;
68375;SDS011;55318;52.068;5.188;2023-09-07T03:38:45;4.0;;;3.1;;
68375;SDS011;55318;52.068;5.188;2023-09-07T03:41:58;5.5;;;3.5;;
68375;SDS011;55318;52.068;5.188;2023-09-07T03:43:34;4.91;;;3.8;;
68375;SDS011;55318;52.068;5.188;2023-09-07T03:45:10;4.3;;;2.9;;
68375;SDS011;55318;52.068;5.188;2023-09-07T03:48:23;4.5;;;3.5;;
68375;SDS011;55318;52.068;5.188;2023-09-07T03:49:59;5.11;;;3.7;;
68375;SDS011;55318;52.068;5.188;2023-09-07T03:51:35;6.0;;;3.8;;
68375;SDS011;55318;52.068;5.188;2023-09-07T03:54:47;4.2;;;3.3;;
68375;SDS011;55318;52.068;5.188;2023-09-07T03:56:23;4.5;;;3.0;;
68375;SDS011;55318;52.068;5.188;2023-09-07T03:57:59;5.6;;;3.4;;
68375;SDS011;55318;52.068;5.188;2023-09-07T03:59:36;6.1;;;3.3;;
68375;SDS011;55318;52.068;5.188;2023-09-07T04:02:48;6.5;;;3.5;;
68375;SDS011;55318;52.068;5.188;2023-09-07T04:04:24;3.6;;;3.1;;
68375;SDS011;55318;52.068;5.188;2023-09-07T04:05:59;6.0;;;3.7;;
68375;SDS011;55318;52.068;5.188;2023-09-07T04:09:11;6.0;;;3.9;;
68375;SDS011;55318;52.068;5.188;2023-09-07T04:10:48;5.0;;;3.7;;
68375;SDS011;55318;52.068;5.188;2023-09-07T04:12:24;6.1;;;4.0;;
68375;SDS011;55318;52.068;5.188;2023-09-07T04:15:41;4.7;;;3.9;;
68375;SDS011;55318;52.068;5.188;2023-09-07T04:17:17;5.9;;;3.8;;
68375;SDS011;55318;52.068;5.188;2023-09-07T04:18:54;7.0;;;4.3;;
68375;SDS011;55318;52.068;5.188;2023-09-07T04:20:30;6.2;;;3.8;;
68375;SDS011;55318;52.068;5.188;2023-09-07T04:23:42;5.5;;;4.0;;
68375;SDS011;55318;52.068;5.188;2023-09-07T04:25:19;5.7;;;3.7;;
68375;SDS011;55318;52.068;5.188;2023-09-07T04:26:58;7.2;;;4.41;;
68375;SDS011;55318;52.068;5.188;2023-09-07T04:30:11;5.2;;;3.3;;
68375;SDS011;55318;52.068;5.188;2023-09-07T04:31:47;6.2;;;4.0;;
68375;SDS011;55318;52.068;5.188;2023-09-07T04:33:22;5.4;;;4.0;;
68375;SDS011;55318;52.068;5.188;2023-09-07T04:36:35;6.5;;;4.0;;
68375;SDS011;55318;52.068;5.188;2023-09-07T04:38:11;5.9;;;3.8;;
68375;SDS011;55318;52.068;5.188;2023-09-07T04:39:49;5.9;;;3.8;;
68375;SDS011;55318;52.068;5.188;2023-09-07T04:41:27;6.8;;;3.7;;
68375;SDS011;55318;52.068;5.188;2023-09-07T04:44:39;6.2;;;3.7;;
68375;SDS011;55318;52.068;5.188;2023-09-07T04:46:16;5.6;;;3.4;;
68375;SDS011;55318;52.068;5.188;2023-09-07T04:47:52;5.6;;;3.9;;
68375;SDS011;55318;52.068;5.188;2023-09-07T04:51:05;6.3;;;4.2;;
68375;SDS011;55318;52.068;5.188;2023-09-07T04:52:41;9.6;;;4.41;;
68375;SDS011;55318;52.068;5.188;2023-09-07T04:54:17;6.3;;;4.0;;
68375;SDS011;55318;52.068;5.188;2023-09-07T04:59:06;4.61;;;3.4;;
68375;SDS011;55318;52.068;5.188;2023-09-07T05:00:43;4.8;;;4.1;;
68375;SDS011;55318;52.068;5.188;2023-09-07T05:02:19;5.7;;;4.1;;
68375;SDS011;55318;52.068;5.188;2023-09-07T05:05:31;6.0;;;3.6;;
68375;SDS011;55318;52.068;5.188;2023-09-07T05:07:07;4.8;;;3.8;;
68375;SDS011;55318;52.068;5.188;2023-09-07T05:08:44;5.3;;;3.6;;
68375;SDS011;55318;52.068;5.188;2023-09-07T05:11:57;5.2;;;3.5;;
68375;SDS011;55318;52.068;5.188;2023-09-07T05:15:10;13.5;;;4.3;;
68375;SDS011;55318;52.068;5.188;2023-09-07T05:18:22;7.3;;;4.41;;
68375;SDS011;55318;52.068;5.188;2023-09-07T05:19:58;5.4;;;3.8;;
68375;SDS011;55318;52.068;5.188;2023-09-07T05:21:34;6.6;;;4.1;;
68375;SDS011;55318;52.068;5.188;2023-09-07T05:24:47;8.1;;;4.2;;
68375;SDS011;55318;52.068;5.188;2023-09-07T05:26:24;6.1;;;3.7;;
68375;SDS011;55318;52.068;5.188;2023-09-07T05:28:00;6.8;;;4.91;;
68375;SDS011;55318;52.068;5.188;2023-09-07T05:29:35;5.9;;;4.1;;
68375;SDS011;55318;52.068;5.188;2023-09-07T05:32:48;5.2;;;3.9;;
68375;SDS011;55318;52.068;5.188;2023-09-07T05:34:24;5.8;;;4.0;;
68375;SDS011;55318;52.068;5.188;2023-09-07T05:36:00;5.3;;;3.8;;
68375;SDS011;55318;52.068;5.188;2023-09-07T05:39:12;5.7;;;4.0;;
68375;SDS011;55318;52.068;5.188;2023-09-07T05:40:49;5.3;;;4.3;;
68375;SDS011;55318;52.068;5.188;2023-09-07T05:42:26;6.7;;;3.9;;
68375;SDS011;55318;52.068;5.188;2023-09-07T05:45:38;5.2;;;3.4;;
68375;SDS011;55318;52.068;5.188;2023-09-07T05:47:16;4.7;;;3.6;;
68375;SDS011;55318;52.068;5.188;2023-09-07T05:48:54;4.7;;;3.6;;
68375;SDS011;55318;52.068;5.188;2023-09-07T05:50:31;4.8;;;3.6;;
68375;SDS011;55318;52.068;5.188;2023-09-07T05:53:46;5.8;;;4.1;;
68375;SDS011;55318;52.068;5.188;2023-09-07T05:55:22;5.3;;;4.0;;
68375;SDS011;55318;52.068;5.188;2023-09-07T05:56:58;5.11;;;4.3;;
68375;SDS011;55318;52.068;5.188;2023-09-07T06:00:11;7.0;;;4.3;;
68375;SDS011;55318;52.068;5.188;2023-09-07T06:01:48;4.91;;;3.6;;
68375;SDS011;55318;52.068;5.188;2023-09-07T06:03:24;6.4;;;4.41;;
68375;SDS011;55318;52.068;5.188;2023-09-07T06:06:38;6.2;;;3.5;;
68375;SDS011;55318;52.068;5.188;2023-09-07T06:08:14;6.0;;;3.8;;
68375;SDS011;55318;52.068;5.188;2023-09-07T06:09:51;5.6;;;3.4;;
68375;SDS011;55318;52.068;5.188;2023-09-07T06:11:27;8.81;;;4.61;;
68375;SDS011;55318;52.068;5.188;2023-09-07T06:14:39;5.4;;;3.5;;
68375;SDS011;55318;52.068;5.188;2023-09-07T06:16:16;5.5;;;3.7;;
68375;SDS011;55318;52.068;5.188;2023-09-07T06:17:52;4.91;;;3.8;;
68375;SDS011;55318;52.068;5.188;2023-09-07T06:21:05;5.0;;;3.6;;
68375;SDS011;55318;52.068;5.188;2023-09-07T06:22:41;5.3;;;3.4;;
68375;SDS011;55318;52.068;5.188;2023-09-07T06:24:17;6.1;;;3.6;;
68375;SDS011;55318;52.068;5.188;2023-09-07T06:27:28;4.91;;;3.5;;
68375;SDS011;55318;52.068;5.188;2023-09-07T06:29:05;5.8;;;3.8;;
68375;SDS011;55318;52.068;5.188;2023-09-07T06:30:41;8.2;;;3.9;;
68375;SDS011;55318;52.068;5.188;2023-09-07T06:32:18;8.1;;;4.3;;
68375;SDS011;55318;52.068;5.188;2023-09-07T06:35:30;7.3;;;4.61;;
68375;SDS011;55318;52.068;5.188;2023-09-07T06:37:06;6.9;;;3.9;;
68375;SDS011;55318;52.068;5.188;2023-09-07T06:38:42;6.0;;;3.8;;
68375;SDS011;55318;52.068;5.188;2023-09-07T06:41:54;6.6;;;3.4;;
68375;SDS011;55318;52.068;5.188;2023-09-07T06:43:30;7.3;;;4.0;;
68375;SDS011;55318;52.068;5.188;2023-09-07T06:45:07;6.9;;;4.0;;
68375;SDS011;55318;52.068;5.188;2023-09-07T06:48:20;6.5;;;3.8;;
68375;SDS011;55318;52.068;5.188;2023-09-07T06:49:56;6.0;;;4.5;;
68375;SDS011;55318;52.068;5.188;2023-09-07T06:51:32;5.9;;;4.41;;
68375;SDS011;55318;52.068;5.188;2023-09-07T06:54:44;6.4;;;4.1;;
68375;SDS011;55318;52.068;5.188;2023-09-07T06:56:20;4.5;;;3.7;;
68375;SDS011;55318;52.068;5.188;2023-09-07T06:57:56;4.2;;;3.4;;
68375;SDS011;55318;52.068;5.188;2023-09-07T06:59:31;7.0;;;4.2;;
68375;SDS011;55318;52.068;5.188;2023-09-07T07:02:44;7.0;;;4.61;;
68375;SDS011;55318;52.068;5.188;2023-09-07T07:04:20;6.4;;;4.1;;
68375;SDS011;55318;52.068;5.188;2023-09-07T07:05:56;6.0;;;4.3;;
68375;SDS011;55318;52.068;5.188;2023-09-07T07:09:10;5.2;;;4.1;;
68375;SDS011;55318;52.068;5.188;2023-09-07T07:10:46;5.8;;;4.2;;
68375;SDS011;55318;52.068;5.188;2023-09-07T07:12:22;6.6;;;3.7;;
68375;SDS011;55318;52.068;5.188;2023-09-07T07:15:34;5.7;;;4.5;;
68375;SDS011;55318;52.068;5.188;2023-09-07T07:17:10;7.0;;;4.0;;
68375;SDS011;55318;52.068;5.188;2023-09-07T07:18:46;4.7;;;3.7;;
68375;SDS011;55318;52.068;5.188;2023-09-07T07:21:59;5.6;;;3.6;;
68375;SDS011;55318;52.068;5.188;2023-09-07T07:23:35;3.7;;;3.1;;
68375;SDS011;55318;52.068;5.188;2023-09-07T07:25:11;11.2;;;4.2;;
68375;SDS011;55318;52.068;5.188;2023-09-07T07:26:48;18.3;;;4.61;;
68375;SDS011;55318;52.068;5.188;2023-09-07T07:30:00;14.3;;;4.2;;
68375;SDS011;55318;52.068;5.188;2023-09-07T07:31:37;5.6;;;3.5;;
68375;SDS011;55318;52.068;5.188;2023-09-07T07:33:14;7.2;;;3.0;;
68375;SDS011;55318;52.068;5.188;2023-09-07T07:36:25;4.0;;;2.6;;
68375;SDS011;55318;52.068;5.188;2023-09-07T07:38:01;4.2;;;2.9;;
68375;SDS011;55318;52.068;5.188;2023-09-07T07:39:38;4.8;;;2.8;;
68375;SDS011;55318;52.068;5.188;2023-09-07T07:42:51;4.61;;;2.5;;
68375;SDS011;55318;52.068;5.188;2023-09-07T07:44:27;4.5;;;3.4;;
68375;SDS011;55318;52.068;5.188;2023-09-07T07:46:04;6.7;;;3.1;;
68375;SDS011;55318;52.068;5.188;2023-09-07T07:47:40;4.1;;;2.8;;
68375;SDS011;55318;52.068;5.188;2023-09-07T07:50:55;3.3;;;2.7;;
68375;SDS011;55318;52.068;5.188;2023-09-07T07:52:32;3.6;;;2.5;;
68375;SDS011;55318;52.068;5.188;2023-09-07T07:54:07;2.9;;;2.1;;
68375;SDS011;55318;52.068;5.188;2023-09-07T07:57:20;4.3;;;2.5;;
68375;SDS011;55318;52.068;5.188;2023-09-07T07:58:56;3.4;;;2.4;;
68375;SDS011;55318;52.068;5.188;2023-09-07T08:00:32;3.2;;;2.4;;
68375;SDS011;55318;52.068;5.188;2023-09-07T08:03:44;3.3;;;2.31;;
68375;SDS011;55318;52.068;5.188;2023-09-07T08:05:20;3.1;;;2.0;;
68375;SDS011;55318;52.068;5.188;2023-09-07T08:06:57;2.31;;;2.0;;
68375;SDS011;55318;52.068;5.188;2023-09-07T08:08:33;5.4;;;2.21;;
68375;SDS011;55318;52.068;5.188;2023-09-07T08:11:45;2.9;;;2.21;;
68375;SDS011;55318;52.068;5.188;2023-09-07T08:13:21;3.6;;;2.31;;
68375;SDS011;55318;52.068;5.188;2023-09-07T08:14:57;7.2;;;2.4;;
68375;SDS011;55318;52.068;5.188;2023-09-07T08:18:10;2.4;;;2.0;;
68375;SDS011;55318;52.068;5.188;2023-09-07T08:19:45;4.2;;;2.0;;
68375;SDS011;55318;52.068;5.188;2023-09-07T08:21:22;2.9;;;2.0;;
68375;SDS011;55318;52.068;5.188;2023-09-07T08:24:34;3.8;;;2.4;;
68375;SDS011;55318;52.068;5.188;2023-09-07T08:26:10;7.1;;;2.1;;
68375;SDS011;55318;52.068;5.188;2023-09-07T08:27:46;2.8;;;2.0;;
68375;SDS011;55318;52.068;5.188;2023-09-07T08:30:59;3.8;;;2.5;;
68375;SDS011;55318;52.068;5.188;2023-09-07T08:32:35;2.9;;;2.21;;
68375;SDS011;55318;52.068;5.188;2023-09-07T08:34:11;15.0;;;2.4;;
68375;SDS011;55318;52.068;5.188;2023-09-07T08:35:51;3.5;;;2.21;;
68375;SDS011;55318;52.068;5.188;2023-09-07T08:39:04;4.1;;;2.31;;
68375;SDS011;55318;52.068;5.188;2023-09-07T08:40:41;2.9;;;1.7;;
68375;SDS011;55318;52.068;5.188;2023-09-07T08:42:17;4.1;;;2.0;;
68375;SDS011;55318;52.068;5.188;2023-09-07T08:45:34;3.1;;;2.1;;
68375;SDS011;55318;52.068;5.188;2023-09-07T08:47:16;4.1;;;2.1;;
68375;SDS011;55318;52.068;5.188;2023-09-07T08:48:54;2.4;;;1.8;;
68375;SDS011;55318;52.068;5.188;2023-09-07T08:50:32;2.6;;;2.0;;
68375;SDS011;55318;52.068;5.188;2023-09-07T08:53:46;3.2;;;2.1;;
68375;SDS011;55318;52.068;5.188;2023-09-07T08:55:22;2.21;;;1.7;;
68375;SDS011;55318;52.068;5.188;2023-09-07T08:57:02;2.7;;;2.0;;
68375;SDS011;55318;52.068;5.188;2023-09-07T09:00:14;5.2;;;2.5;;
68375;SDS011;55318;52.068;5.188;2023-09-07T09:01:51;3.5;;;2.31;;
68375;SDS011;55318;52.068;5.188;2023-09-07T09:03:32;4.3;;;1.9;;
68375;SDS011;55318;52.068;5.188;2023-09-07T09:05:08;3.0;;;1.8;;
68375;SDS011;55318;52.068;5.188;2023-09-07T09:08:21;5.5;;;2.1;;
68375;SDS011;55318;52.068;5.188;2023-09-07T09:10:05;4.7;;;1.9;;
68375;SDS011;55318;52.068;5.188;2023-09-07T09:11:41;4.0;;;1.9;;
68375;SDS011;55318;52.068;5.188;2023-09-07T09:15:03;2.4;;;2.0;;
68375;SDS011;55318;52.068;5.188;2023-09-07T09:16:40;3.1;;;2.0;;
68375;SDS011;55318;52.068;5.188;2023-09-07T09:18:24;2.5;;;1.7;;
68375;SDS011;55318;52.068;5.188;2023-09-07T09:20:00;5.11;;;2.21;;
68375;SDS011;55318;52.068;5.188;2023-09-07T09:23:12;3.2;;;2.1;;
68375;SDS011;55318;52.068;5.188;2023-09-07T09:24:48;2.31;;;2.0;;
68375;SDS011;55318;52.068;5.188;2023-09-07T09:26:24;5.8;;;2.31;;
68375;SDS011;55318;52.068;5.188;2023-09-07T09:28:01;4.7;;;2.21;;
68375;SDS011;55318;52.068;5.188;2023-09-07T09:31:14;4.1;;;1.8;;
68375;SDS011;55318;52.068;5.188;2023-09-07T09:32:50;2.7;;;1.9;;
68375;SDS011;55318;52.068;5.188;2023-09-07T09:34:32;3.2;;;2.1;;
68375;SDS011;55318;52.068;5.188;2023-09-07T09:37:45;3.1;;;2.0;;
68375;SDS011;55318;52.068;5.188;2023-09-07T09:39:22;2.1;;;1.9;;
68375;SDS011;55318;52.068;5.188;2023-09-07T09:40:59;3.2;;;2.1;;
68375;SDS011;55318;52.068;5.188;2023-09-07T09:44:11;2.21;;;2.0;;
68375;SDS011;55318;52.068;5.188;2023-09-07T09:45:49;4.0;;;2.1;;
68375;SDS011;55318;52.068;5.188;2023-09-07T09:47:27;3.3;;;2.1;;
68375;SDS011;55318;52.068;5.188;2023-09-07T09:49:07;3.2;;;2.0;;
68375;SDS011;55318;52.068;5.188;2023-09-07T09:52:21;3.7;;;2.1;;
68375;SDS011;55318;52.068;5.188;2023-09-07T09:54:00;2.5;;;2.0;;
68375;SDS011;55318;52.068;5.188;2023-09-07T09:55:37;2.4;;;1.8;;
68375;SDS011;55318;52.068;5.188;2023-09-07T09:58:49;3.8;;;2.21;;
68375;SDS011;55318;52.068;5.188;2023-09-07T10:00:25;2.7;;;2.0;;
68375;SDS011;55318;52.068;5.188;2023-09-07T10:02:02;3.7;;;2.4;;
68375;SDS011;55318;52.068;5.188;2023-09-07T10:03:41;3.4;;;2.1;;
68375;SDS011;55318;52.068;5.188;2023-09-07T10:06:59;4.61;;;2.5;;
68375;SDS011;55318;52.068;5.188;2023-09-07T10:08:36;4.61;;;2.21;;
68375;SDS011;55318;52.068;5.188;2023-09-07T10:10:12;5.7;;;2.4;;
68375;SDS011;55318;52.068;5.188;2023-09-07T10:13:29;5.7;;;2.4;;
68375;SDS011;55318;52.068;5.188;2023-09-07T10:15:06;2.9;;;2.0;;
68375;SDS011;55318;52.068;5.188;2023-09-07T10:16:55;3.4;;;2.1;;
68375;SDS011;55318;52.068;5.188;2023-09-07T10:18:33;2.8;;;2.0;;
68375;SDS011;55318;52.068;5.188;2023-09-07T10:21:47;2.21;;;1.8;;
68375;SDS011;55318;52.068;5.188;2023-09-07T10:23:34;3.1;;;1.9;;
68375;SDS011;55318;52.068;5.188;2023-09-07T10:25:20;2.6;;;2.31;;
68375;SDS011;55318;52.068;5.188;2023-09-07T10:26:59;3.7;;;2.0;;
68375;SDS011;55318;52.068;5.188;2023-09-07T10:30:14;4.61;;;1.9;;
68375;SDS011;55318;52.068;5.188;2023-09-07T10:31:50;4.2;;;1.8;;
68375;SDS011;55318;52.068;5.188;2023-09-07T10:33:27;2.21;;;2.0;;
68375;SDS011;55318;52.068;5.188;2023-09-07T10:35:05;3.7;;;1.8;;
68375;SDS011;55318;52.068;5.188;2023-09-07T10:38:31;3.2;;;1.8;;
68375;SDS011;55318;52.068;5.188;2023-09-07T10:40:09;3.8;;;2.1;;
68375;SDS011;55318;52.068;5.188;2023-09-07T10:41:46;1.9;;;1.8;;
68375;SDS011;55318;52.068;5.188;2023-09-07T10:43:22;2.6;;;1.9;;
68375;SDS011;55318;52.068;5.188;2023-09-07T10:46:44;4.2;;;2.31;;
68375;SDS011;55318;52.068;5.188;2023-09-07T10:48:20;2.4;;;2.0;;
68375;SDS011;55318;52.068;5.188;2023-09-07T10:49:57;2.0;;;1.8;;
68375;SDS011;55318;52.068;5.188;2023-09-07T10:53:15;2.0;;;1.8;;
68375;SDS011;55318;52.068;5.188;2023-09-07T10:55:00;2.5;;;2.0;;
68375;SDS011;55318;52.068;5.188;2023-09-07T10:56:37;4.8;;;1.8;;
68375;SDS011;55318;52.068;5.188;2023-09-07T10:58:13;2.5;;;1.9;;
68375;SDS011;55318;52.068;5.188;2023-09-07T11:01:38;2.21;;;1.8;;
68375;SDS011;55318;52.068;5.188;2023-09-07T11:03:14;3.4;;;1.6;;
68375;SDS011;55318;52.068;5.188;2023-09-07T11:04:50;3.7;;;1.9;;
68375;SDS011;55318;52.068;5.188;2023-09-07T11:06:27;2.21;;;1.8;;
68375;SDS011;55318;52.068;5.188;2023-09-07T11:09:42;3.1;;;2.1;;
68375;SDS011;55318;52.068;5.188;2023-09-07T11:11:19;3.3;;;2.1;;
68375;SDS011;55318;52.068;5.188;2023-09-07T11:12:55;2.5;;;2.31;;
68375;SDS011;55318;52.068;5.188;2023-09-07T11:16:07;1.6;;;1.5;;
68375;SDS011;55318;52.068;5.188;2023-09-07T11:17:45;2.1;;;1.9;;
68375;SDS011;55318;52.068;5.188;2023-09-07T11:19:21;2.1;;;1.7;;
68375;SDS011;55318;52.068;5.188;2023-09-07T11:20:57;2.9;;;1.8;;
68375;SDS011;55318;52.068;5.188;2023-09-07T11:24:10;2.9;;;1.8;;
68375;SDS011;55318;52.068;5.188;2023-09-07T11:25:46;2.7;;;2.1;;
68375;SDS011;55318;52.068;5.188;2023-09-07T11:27:24;4.0;;;2.0;;
68375;SDS011;55318;52.068;5.188;2023-09-07T11:30:36;4.0;;;2.0;;
68375;SDS011;55318;52.068;5.188;2023-09-07T11:32:13;2.7;;;1.9;;
68375;SDS011;55318;52.068;5.188;2023-09-07T11:33:49;2.6;;;1.9;;
68375;SDS011;55318;52.068;5.188;2023-09-07T11:37:02;4.8;;;2.1;;
68375;SDS011;55318;52.068;5.188;2023-09-07T11:38:42;2.6;;;2.0;;
68375;SDS011;55318;52.068;5.188;2023-09-07T11:40:20;2.8;;;2.1;;
68375;SDS011;55318;52.068;5.188;2023-09-07T11:41:56;3.3;;;2.5;;
68375;SDS011;55318;52.068;5.188;2023-09-07T11:45:08;5.2;;;2.21;;
68375;SDS011;55318;52.068;5.188;2023-09-07T11:46:45;2.5;;;1.8;;
68375;SDS011;55318;52.068;5.188;2023-09-07T11:48:22;2.9;;;2.1;;
68375;SDS011;55318;52.068;5.188;2023-09-07T11:51:34;4.0;;;2.0;;
68375;SDS011;55318;52.068;5.188;2023-09-07T11:53:10;3.7;;;2.1;;
68375;SDS011;55318;52.068;5.188;2023-09-07T11:54:47;2.6;;;1.8;;
68375;SDS011;55318;52.068;5.188;2023-09-07T11:57:59;3.8;;;1.9;;
68375;SDS011;55318;52.068;5.188;2023-09-07T11:59:36;2.5;;;1.9;;
68375;SDS011;55318;52.068;5.188;2023-09-07T12:01:12;3.4;;;2.31;;
68375;SDS011;55318;52.068;5.188;2023-09-07T12:02:49;4.8;;;2.21;;
68375;SDS011;55318;52.068;5.188;2023-09-07T12:06:02;2.7;;;2.0;;
68375;SDS011;55318;52.068;5.188;2023-09-07T12:07:38;2.5;;;1.9;;
68375;SDS011;55318;52.068;5.188;2023-09-07T12:09:14;3.4;;;2.21;;
68375;SDS011;55318;52.068;5.188;2023-09-07T12:14:02;2.9;;;2.31;;
68375;SDS011;55318;52.068;5.188;2023-09-07T12:15:39;4.2;;;2.31;;
68375;SDS011;55318;52.068;5.188;2023-09-07T12:18:51;3.6;;;1.8;;
68375;SDS011;55318;52.068;5.188;2023-09-07T12:20:28;2.6;;;2.1;;
68375;SDS011;55318;52.068;5.188;2023-09-07T12:22:04;3.0;;;1.9;;
68375;SDS011;55318;52.068;5.188;2023-09-07T12:25:16;2.6;;;2.0;;
68375;SDS011;55318;52.068;5.188;2023-09-07T12:26:53;6.0;;;2.4;;
68375;SDS011;55318;52.068;5.188;2023-09-07T12:28:29;4.41;;;1.8;;
68375;SDS011;55318;52.068;5.188;2023-09-07T12:30:05;3.7;;;2.1;;
68375;SDS011;55318;52.068;5.188;2023-09-07T12:33:18;5.11;;;2.21;;
68375;SDS011;55318;52.068;5.188;2023-09-07T12:34:54;2.4;;;2.21;;
68375;SDS011;55318;52.068;5.188;2023-09-07T12:36:30;3.0;;;2.1;;
68375;SDS011;55318;52.068;5.188;2023-09-07T12:39:43;2.1;;;1.7;;
68375;SDS011;55318;52.068;5.188;2023-09-07T12:41:19;3.6;;;2.31;;
68375;SDS011;55318;52.068;5.188;2023-09-07T12:42:54;3.6;;;2.31;;
68375;SDS011;55318;52.068;5.188;2023-09-07T12:46:07;2.21;;;1.8;;
68375;SDS011;55318;52.068;5.188;2023-09-07T12:47:43;2.21;;;1.8;;
68375;SDS011;55318;52.068;5.188;2023-09-07T12:49:19;3.4;;;2.1;;
68375;SDS011;55318;52.068;5.188;2023-09-07T12:50:55;4.41;;;2.4;;
68375;SDS011;55318;52.068;5.188;2023-09-07T12:54:09;4.41;;;2.4;;
68375;SDS011;55318;52.068;5.188;2023-09-07T12:55:45;3.0;;;2.31;;
68375;SDS011;55318;52.068;5.188;2023-09-07T12:57:21;7.3;;;2.8;;
68375;SDS011;55318;52.068;5.188;2023-09-07T13:00:33;3.4;;;2.1;;
68375;SDS011;55318;52.068;5.188;2023-09-07T13:02:09;3.4;;;2.21;;
68375;SDS011;55318;52.068;5.188;2023-09-07T13:03:45;5.2;;;1.9;;
68375;SDS011;55318;52.068;5.188;2023-09-07T13:06:58;3.7;;;1.8;;